createdAt,value
2022-07-31T00:00:33.313Z,1003.84
2022-07-31T00:01:37.724Z,1003.82
2022-07-31T00:02:42.134Z,1003.85
2022-07-31T00:03:46.633Z,1003.85
2022-07-31T00:04:51.001Z,1003.84
2022-07-31T00:05:55.415Z,1003.88
2022-07-31T00:07:00.036Z,1003.88
2022-07-31T00:08:04.257Z,1003.89
2022-07-31T00:09:49.117Z,1003.89
2022-07-31T00:10:13.134Z,1003.88
2022-07-31T00:11:17.564Z,1003.87
2022-07-31T00:12:21.982Z,1003.93
2022-07-31T00:13:58.223Z,1003.89
2022-07-31T00:14:30.856Z,1003.92
2022-07-31T00:15:35.265Z,1003.88
2022-07-31T00:16:39.687Z,1003.86
2022-07-31T00:17:44.098Z,1003.90
2022-07-31T00:18:48.545Z,1003.85
2022-07-31T00:19:52.965Z,1003.85
2022-07-31T00:20:57.378Z,1003.84
2022-07-31T00:22:01.786Z,1003.82
2022-07-31T00:23:06.216Z,1003.83
2022-07-31T00:24:10.656Z,1003.83
2022-07-31T00:25:15.067Z,1003.85
2022-07-31T00:26:19.486Z,1003.78
2022-07-31T00:27:23.906Z,1003.81
2022-07-31T00:28:28.316Z,1003.78
2022-07-31T00:29:32.763Z,1003.76
2022-07-31T00:30:37.177Z,1003.80
2022-07-31T00:31:41.614Z,1003.79
2022-07-31T00:32:46.032Z,1003.78
2022-07-31T00:33:50.477Z,1003.80
2022-07-31T00:34:54.897Z,1003.76
2022-07-31T00:35:59.318Z,1003.76
2022-07-31T00:37:04.160Z,1003.76
2022-07-31T00:38:26.262Z,1003.72
2022-07-31T00:39:12.628Z,1003.74
2022-07-31T00:40:17.059Z,1003.71
2022-07-31T00:41:21.469Z,1003.70
2022-07-31T00:42:25.899Z,1003.67
2022-07-31T00:43:30.940Z,1003.69
2022-07-31T00:44:34.767Z,1003.68
2022-07-31T00:45:39.188Z,1003.70
2022-07-31T00:46:43.617Z,1003.69
2022-07-31T00:47:48.059Z,1003.66
2022-07-31T00:48:52.546Z,1003.63
2022-07-31T00:49:56.918Z,1003.65
2022-07-31T00:51:01.332Z,1003.61
2022-07-31T00:52:05.791Z,1003.65
2022-07-31T00:53:10.217Z,1003.62
2022-07-31T00:54:22.806Z,1003.61
2022-07-31T00:55:19.109Z,1003.61
2022-07-31T00:56:23.511Z,1003.58
2022-07-31T00:57:27.932Z,1003.57
2022-07-31T00:58:32.351Z,1003.60
2022-07-31T00:59:36.792Z,1003.59
2022-07-31T01:00:41.256Z,1003.59
2022-07-31T01:01:45.673Z,1003.58
2022-07-31T01:02:50.092Z,1003.59
2022-07-31T01:03:54.534Z,1003.59
2022-07-31T01:04:58.981Z,1003.58
2022-07-31T01:06:03.424Z,1003.55
2022-07-31T01:07:07.831Z,1003.54
2022-07-31T01:08:12.245Z,1003.53
2022-07-31T01:09:16.673Z,1003.52
2022-07-31T01:10:21.093Z,1003.53
2022-07-31T01:11:25.509Z,1003.52
2022-07-31T01:12:29.926Z,1003.49
2022-07-31T01:13:34.343Z,1003.47
2022-07-31T01:14:38.830Z,1003.47
2022-07-31T01:15:43.234Z,1003.45
2022-07-31T01:16:47.662Z,1003.45
2022-07-31T01:17:52.085Z,1003.45
2022-07-31T01:18:56.506Z,1003.51
2022-07-31T01:20:00.947Z,1003.47
2022-07-31T01:21:05.365Z,1003.49
2022-07-31T01:22:34.120Z,1003.46
2022-07-31T01:23:14.224Z,1003.51
2022-07-31T01:24:18.653Z,1003.49
2022-07-31T01:25:23.086Z,1003.51
2022-07-31T01:26:27.514Z,1003.49
2022-07-31T01:27:31.926Z,1003.51
2022-07-31T01:28:36.355Z,1003.51
2022-07-31T01:29:40.767Z,1003.52
2022-07-31T01:30:45.217Z,1003.56
2022-07-31T01:31:49.636Z,1003.53
2022-07-31T01:32:54.049Z,1003.53
2022-07-31T01:33:58.477Z,1003.48
2022-07-31T01:35:02.940Z,1003.49
2022-07-31T01:36:07.375Z,1003.48
2022-07-31T01:37:11.785Z,1003.48
2022-07-31T01:38:16.219Z,1003.49
2022-07-31T01:39:20.638Z,1003.43
2022-07-31T01:40:25.088Z,1003.48
2022-07-31T01:41:29.500Z,1003.46
2022-07-31T01:42:33.925Z,1003.45
2022-07-31T01:43:38.329Z,1003.42
2022-07-31T01:44:42.760Z,1003.43
2022-07-31T01:45:47.197Z,1003.42
2022-07-31T01:46:51.647Z,1003.43
2022-07-31T01:47:56.049Z,1003.42
2022-07-31T01:49:00.522Z,1003.45
2022-07-31T01:50:04.929Z,1003.42
2022-07-31T01:51:09.361Z,1003.41
2022-07-31T01:52:13.780Z,1003.39
2022-07-31T01:53:18.210Z,1003.38
2022-07-31T01:54:22.622Z,1003.37
2022-07-31T01:55:27.061Z,1003.39
2022-07-31T01:56:31.471Z,1003.40
2022-07-31T01:57:35.892Z,1003.39
2022-07-31T01:58:40.321Z,1003.40
2022-07-31T01:59:46.370Z,1003.41
2022-07-31T02:00:49.256Z,1003.42
2022-07-31T02:01:53.626Z,1003.45
2022-07-31T02:02:58.042Z,1003.43
2022-07-31T02:04:02.484Z,1003.42
2022-07-31T02:05:06.914Z,1003.41
2022-07-31T02:06:11.351Z,1003.38
2022-07-31T02:07:15.763Z,1003.35
2022-07-31T02:08:20.185Z,1003.33
2022-07-31T02:09:24.633Z,1003.35
2022-07-31T02:10:29.071Z,1003.29
2022-07-31T02:11:33.494Z,1003.31
2022-07-31T02:12:37.929Z,1003.33
2022-07-31T02:13:42.357Z,1003.30
2022-07-31T02:14:46.775Z,1003.30
2022-07-31T02:15:51.234Z,1003.30
2022-07-31T02:16:55.668Z,1003.27
2022-07-31T02:18:00.104Z,1003.27
2022-07-31T02:19:04.527Z,1003.25
2022-07-31T02:20:08.953Z,1003.25
2022-07-31T02:21:13.406Z,1003.22
2022-07-31T02:22:17.827Z,1003.24
2022-07-31T02:23:22.273Z,1003.21
2022-07-31T02:24:26.686Z,1003.26
2022-07-31T02:25:31.126Z,1003.22
2022-07-31T02:26:35.566Z,1003.16
2022-07-31T02:27:56.981Z,1003.18
2022-07-31T02:28:44.418Z,1003.16
2022-07-31T02:29:48.867Z,1003.15
2022-07-31T02:30:53.308Z,1003.13
2022-07-31T02:32:01.872Z,1003.15
2022-07-31T02:33:02.197Z,1003.09
2022-07-31T02:34:06.627Z,1003.11
2022-07-31T02:35:11.048Z,1003.07
2022-07-31T02:36:15.511Z,1003.05
2022-07-31T02:37:19.930Z,1003.06
2022-07-31T02:38:24.347Z,1003.05
2022-07-31T02:39:30.649Z,1003.05
2022-07-31T02:40:33.198Z,1003.03
2022-07-31T02:41:37.628Z,1003.03
2022-07-31T02:42:42.041Z,1003.02
2022-07-31T02:43:46.468Z,1003.00
2022-07-31T02:44:50.880Z,1003.00
2022-07-31T02:45:55.321Z,1003.04
2022-07-31T02:46:59.749Z,1003.04
2022-07-31T02:48:04.173Z,1003.04
2022-07-31T02:49:08.695Z,1003.06
2022-07-31T02:50:13.031Z,1003.01
2022-07-31T02:51:17.481Z,1003.05
2022-07-31T02:52:21.891Z,1003.00
2022-07-31T02:53:26.312Z,1002.99
2022-07-31T02:54:30.750Z,1003.02
2022-07-31T02:55:35.171Z,1003.00
2022-07-31T02:56:39.620Z,1003.00
2022-07-31T02:57:44.513Z,1002.96
2022-07-31T02:58:48.456Z,1002.95
2022-07-31T02:59:52.881Z,1002.95
2022-07-31T03:00:57.396Z,1002.92
2022-07-31T03:02:02.230Z,1002.95
2022-07-31T03:03:06.193Z,1002.93
2022-07-31T03:04:10.622Z,1002.94
2022-07-31T03:05:15.052Z,1002.89
2022-07-31T03:06:19.505Z,1002.89
2022-07-31T03:07:23.914Z,1002.88
2022-07-31T03:08:28.529Z,1002.85
2022-07-31T03:09:32.772Z,1002.88
2022-07-31T03:10:37.196Z,1002.84
2022-07-31T03:11:41.649Z,1002.88
2022-07-31T03:12:46.068Z,1002.86
2022-07-31T03:13:50.491Z,1002.86
2022-07-31T03:14:54.924Z,1002.86
2022-07-31T03:15:59.389Z,1002.87
2022-07-31T03:17:03.804Z,1002.84
2022-07-31T03:18:11.378Z,1002.86
2022-07-31T03:19:12.626Z,1002.85
2022-07-31T03:20:17.056Z,1002.87
2022-07-31T03:21:21.508Z,1002.87
2022-07-31T03:22:25.926Z,1002.87
2022-07-31T03:23:30.375Z,1002.85
2022-07-31T03:24:34.786Z,1002.84
2022-07-31T03:25:39.217Z,1002.85
2022-07-31T03:26:43.666Z,1002.85
2022-07-31T03:27:52.403Z,1002.83
2022-07-31T03:28:52.516Z,1002.81
2022-07-31T03:29:56.958Z,1002.84
2022-07-31T03:31:01.427Z,1002.81
2022-07-31T03:32:06.288Z,1002.82
2022-07-31T03:33:10.298Z,1002.81
2022-07-31T03:34:14.728Z,1002.81
2022-07-31T03:35:19.148Z,1002.82
2022-07-31T03:36:23.587Z,1002.78
2022-07-31T03:37:28.009Z,1002.80
2022-07-31T03:38:32.466Z,1002.84
2022-07-31T03:39:36.867Z,1002.82
2022-07-31T03:40:41.320Z,1002.84
2022-07-31T03:41:45.749Z,1002.86
2022-07-31T03:42:50.179Z,1002.90
2022-07-31T03:43:54.608Z,1002.88
2022-07-31T03:44:59.019Z,1002.91
2022-07-31T03:46:03.469Z,1002.87
2022-07-31T03:47:07.881Z,1002.88
2022-07-31T03:48:12.300Z,1002.87
2022-07-31T03:49:16.788Z,1002.85
2022-07-31T03:50:21.151Z,1002.84
2022-07-31T03:51:25.600Z,1002.82
2022-07-31T03:52:30.030Z,1002.83
2022-07-31T03:53:34.451Z,1002.83
2022-07-31T03:54:38.890Z,1002.78
2022-07-31T03:55:43.340Z,1002.80
2022-07-31T03:56:47.762Z,1002.79
2022-07-31T03:57:52.198Z,1002.81
2022-07-31T03:58:56.622Z,1002.75
2022-07-31T04:00:01.032Z,1002.81
2022-07-31T04:01:06.208Z,1002.80
2022-07-31T04:02:10.738Z,1002.79
2022-07-31T04:03:14.315Z,1002.76
2022-07-31T04:04:18.753Z,1002.71
2022-07-31T04:05:23.180Z,1002.74
2022-07-31T04:06:27.613Z,1002.73
2022-07-31T04:07:32.043Z,1002.69
2022-07-31T04:08:36.463Z,1002.70
2022-07-31T04:09:40.896Z,1002.69
2022-07-31T04:10:45.312Z,1002.70
2022-07-31T04:11:49.774Z,1002.72
2022-07-31T04:12:54.193Z,1002.70
2022-07-31T04:13:58.624Z,1002.72
2022-07-31T04:15:03.073Z,1002.70
2022-07-31T04:16:07.523Z,1002.72
2022-07-31T04:17:11.946Z,1002.72
2022-07-31T04:18:16.413Z,1002.74
2022-07-31T04:19:20.835Z,1002.77
2022-07-31T04:20:25.265Z,1002.77
2022-07-31T04:21:29.705Z,1002.76
2022-07-31T04:22:34.145Z,1002.79
2022-07-31T04:23:38.598Z,1002.77
2022-07-31T04:24:43.026Z,1002.75
2022-07-31T04:25:47.456Z,1002.74
2022-07-31T04:26:51.944Z,1002.71
2022-07-31T04:27:56.375Z,1002.70
2022-07-31T04:29:00.797Z,1002.66
2022-07-31T04:30:05.235Z,1002.71
2022-07-31T04:31:09.665Z,1002.65
2022-07-31T04:32:14.126Z,1002.63
2022-07-31T04:33:18.555Z,1002.64
2022-07-31T04:34:22.982Z,1002.64
2022-07-31T04:35:27.407Z,1002.64
2022-07-31T04:36:31.865Z,1002.61
2022-07-31T04:37:36.298Z,1002.68
2022-07-31T04:38:40.738Z,1002.67
2022-07-31T04:39:45.176Z,1002.62
2022-07-31T04:40:49.606Z,1002.62
2022-07-31T04:41:54.051Z,1002.61
2022-07-31T04:42:58.488Z,1002.62
2022-07-31T05:00:00.173Z,1002.62
2022-07-31T05:01:02.319Z,1002.68
2022-07-31T05:02:07.216Z,1002.61
2022-07-31T05:03:11.168Z,1002.59
2022-07-31T05:04:15.576Z,1002.57
2022-07-31T05:05:19.967Z,1002.55
2022-07-31T05:06:24.406Z,1002.51
2022-07-31T05:07:29.168Z,1002.50
2022-07-31T05:08:33.197Z,1002.46
2022-07-31T05:09:37.585Z,1002.47
2022-07-31T05:10:41.977Z,1002.48
2022-07-31T05:11:46.386Z,1002.47
2022-07-31T05:12:50.787Z,1002.44
2022-07-31T05:13:55.189Z,1002.48
2022-07-31T05:14:59.580Z,1002.52
2022-07-31T05:16:03.957Z,1002.47
2022-07-31T05:17:08.367Z,1002.50
2022-07-31T05:18:12.760Z,1002.48
2022-07-31T05:19:17.138Z,1002.49
2022-07-31T05:20:21.518Z,1002.47
2022-07-31T05:21:25.909Z,1002.50
2022-07-31T05:22:30.324Z,1002.50
2022-07-31T05:23:34.700Z,1002.50
2022-07-31T05:24:39.097Z,1002.48
2022-07-31T05:25:43.490Z,1002.50
2022-07-31T05:26:47.900Z,1002.50
2022-07-31T05:27:52.292Z,1002.41
2022-07-31T05:28:58.586Z,1002.40
2022-07-31T05:30:01.072Z,1002.40
2022-07-31T05:31:05.460Z,1002.40
2022-07-31T05:32:09.938Z,1002.43
2022-07-31T05:33:14.262Z,1002.44
2022-07-31T05:34:18.648Z,1002.43
2022-07-31T05:35:23.032Z,1002.39
2022-07-31T05:36:27.432Z,1002.43
2022-07-31T05:37:31.840Z,1002.48
2022-07-31T05:38:36.243Z,1002.46
2022-07-31T05:39:40.620Z,1002.44
2022-07-31T05:40:45.018Z,1002.44
2022-07-31T05:41:49.452Z,1002.43
2022-07-31T05:42:53.831Z,1002.45
2022-07-31T05:43:58.281Z,1002.46
2022-07-31T05:45:02.673Z,1002.47
2022-07-31T05:46:07.063Z,1002.48
2022-07-31T05:47:11.462Z,1002.44
2022-07-31T05:48:15.847Z,1002.43
2022-07-31T05:49:20.284Z,1002.45
2022-07-31T05:50:24.602Z,1002.42
2022-07-31T05:51:28.982Z,1002.45
2022-07-31T05:52:33.402Z,1002.44
2022-07-31T05:53:37.797Z,1002.47
2022-07-31T05:54:42.182Z,1002.44
2022-07-31T05:55:46.582Z,1002.46
2022-07-31T05:56:50.984Z,1002.43
2022-07-31T05:57:55.403Z,1002.47
2022-07-31T05:58:59.814Z,1002.50
2022-07-31T06:00:04.464Z,1002.46
2022-07-31T06:01:08.646Z,1002.52
2022-07-31T06:02:13.015Z,1002.46
2022-07-31T06:03:17.398Z,1002.44
2022-07-31T06:04:21.776Z,1002.42
2022-07-31T06:05:26.153Z,1002.45
2022-07-31T06:06:30.545Z,1002.44
2022-07-31T06:07:34.952Z,1002.40
2022-07-31T06:08:39.330Z,1002.40
2022-07-31T06:09:43.716Z,1002.41
2022-07-31T06:10:48.087Z,1002.43
2022-07-31T06:11:52.488Z,1002.35
2022-07-31T06:12:56.895Z,1002.38
2022-07-31T06:14:01.277Z,1002.37
2022-07-31T06:15:05.664Z,1002.39
2022-07-31T06:16:10.044Z,1002.33
2022-07-31T06:17:14.437Z,1002.36
2022-07-31T06:18:18.827Z,1002.34
2022-07-31T06:19:24.342Z,1002.33
2022-07-31T06:20:27.617Z,1002.35
2022-07-31T06:21:31.995Z,1002.37
2022-07-31T06:22:36.424Z,1002.31
2022-07-31T06:23:40.797Z,1002.29
2022-07-31T06:24:45.208Z,1002.29
2022-07-31T06:25:49.589Z,1002.32
2022-07-31T06:26:53.988Z,1002.32
2022-07-31T06:27:59.956Z,1002.33
2022-07-31T06:29:02.788Z,1002.34
2022-07-31T06:30:07.168Z,1002.30
2022-07-31T06:31:11.576Z,1002.32
2022-07-31T06:32:15.959Z,1002.29
2022-07-31T06:33:36.786Z,1002.30
2022-07-31T06:34:24.760Z,1002.32
2022-07-31T06:35:29.172Z,1002.30
2022-07-31T06:36:33.540Z,1002.28
2022-07-31T06:37:37.962Z,1002.30
2022-07-31T06:38:42.341Z,1002.22
2022-07-31T06:39:55.956Z,1002.21
2022-07-31T06:40:51.142Z,1002.21
2022-07-31T06:41:55.540Z,1002.22
2022-07-31T06:43:02.722Z,1002.19
2022-07-31T06:44:04.341Z,1002.15
2022-07-31T06:45:08.739Z,1002.16
2022-07-31T06:46:13.120Z,1002.18
2022-07-31T06:47:17.502Z,1002.17
2022-07-31T06:48:21.933Z,1002.15
2022-07-31T06:49:26.405Z,1002.14
2022-07-31T06:50:30.701Z,1002.17
2022-07-31T06:51:35.072Z,1002.17
2022-07-31T06:52:39.482Z,1002.21
2022-07-31T06:53:43.895Z,1002.22
2022-07-31T06:54:48.289Z,1002.22
2022-07-31T06:55:52.664Z,1002.25
2022-07-31T06:56:57.052Z,1002.25
2022-07-31T06:58:01.461Z,1002.25
2022-07-31T06:59:05.853Z,1002.26
2022-07-31T07:00:19.835Z,1002.25
2022-07-31T07:01:14.625Z,1002.21
2022-07-31T07:02:19.006Z,1002.22
2022-07-31T07:03:23.404Z,1002.20
2022-07-31T07:04:56.354Z,1002.22
2022-07-31T07:05:32.175Z,1002.21
2022-07-31T07:06:36.564Z,1002.22
2022-07-31T07:07:40.942Z,1002.20
2022-07-31T07:08:45.347Z,1002.19
2022-07-31T07:09:49.735Z,1002.28
2022-07-31T07:10:54.124Z,1002.20
2022-07-31T07:11:58.513Z,1002.19
2022-07-31T07:13:02.905Z,1002.17
2022-07-31T07:14:07.315Z,1002.16
2022-07-31T07:15:11.693Z,1002.21
2022-07-31T07:16:16.102Z,1002.18
2022-07-31T07:17:20.456Z,1002.16
2022-07-31T07:18:24.876Z,1002.15
2022-07-31T07:19:29.255Z,1002.10
2022-07-31T07:20:33.659Z,1002.13
2022-07-31T07:21:38.040Z,1002.14
2022-07-31T07:22:42.456Z,1002.18
2022-07-31T07:23:46.858Z,1002.12
2022-07-31T07:24:51.247Z,1002.18
2022-07-31T07:25:55.616Z,1002.17
2022-07-31T07:27:00.020Z,1002.17
2022-07-31T07:28:04.407Z,1002.16
2022-07-31T07:29:08.817Z,1002.18
2022-07-31T07:30:13.202Z,1002.17
2022-07-31T07:31:17.626Z,1002.17
2022-07-31T07:32:21.999Z,1002.17
2022-07-31T07:33:40.923Z,1002.18
2022-07-31T07:34:30.791Z,1002.15
2022-07-31T07:35:35.200Z,1002.15
2022-07-31T07:36:39.571Z,1002.10
2022-07-31T07:37:43.963Z,1002.12
2022-07-31T07:38:48.409Z,1002.09
2022-07-31T07:39:52.774Z,1002.14
2022-07-31T07:40:57.151Z,1002.13
2022-07-31T07:42:01.925Z,1002.14
2022-07-31T07:43:05.920Z,1002.17
2022-07-31T07:44:10.319Z,1002.14
2022-07-31T07:45:14.701Z,1002.15
2022-07-31T07:46:19.095Z,1002.17
2022-07-31T07:47:23.512Z,1002.13
2022-07-31T07:48:27.867Z,1002.16
2022-07-31T07:49:32.288Z,1002.09
2022-07-31T07:50:36.681Z,1002.11
2022-07-31T07:51:59.319Z,1002.10
2022-07-31T07:52:45.450Z,1002.10
2022-07-31T07:53:49.835Z,1002.10
2022-07-31T07:54:54.236Z,1002.05
2022-07-31T07:55:58.624Z,1002.05
2022-07-31T07:57:03.016Z,1002.05
2022-07-31T07:58:11.556Z,1002.00
2022-07-31T07:59:15.111Z,1001.98
2022-07-31T08:00:16.228Z,1001.93
2022-07-31T08:01:20.716Z,1001.92
2022-07-31T08:02:24.995Z,1001.92
2022-07-31T08:03:49.636Z,1001.91
2022-07-31T08:04:33.786Z,1001.91
2022-07-31T08:05:38.163Z,1001.90
2022-07-31T08:06:42.546Z,1001.88
2022-07-31T08:07:46.943Z,1001.87
2022-07-31T08:08:51.320Z,1001.85
2022-07-31T08:09:55.722Z,1001.82
2022-07-31T08:11:00.125Z,1001.83
2022-07-31T08:12:04.807Z,1001.81
2022-07-31T08:13:08.922Z,1001.80
2022-07-31T08:14:15.240Z,1001.80
2022-07-31T08:15:17.710Z,1001.79
2022-07-31T08:16:22.093Z,1001.77
2022-07-31T08:17:26.485Z,1001.76
2022-07-31T08:18:30.875Z,1001.77
2022-07-31T08:19:35.286Z,1001.78
2022-07-31T08:20:39.667Z,1001.73
2022-07-31T08:21:44.047Z,1001.76
2022-07-31T08:22:48.462Z,1001.74
2022-07-31T08:23:52.873Z,1001.75
2022-07-31T08:24:57.237Z,1001.75
2022-07-31T08:26:01.637Z,1001.76
2022-07-31T08:27:10.514Z,1001.73
2022-07-31T08:28:19.269Z,1001.70
2022-07-31T08:29:14.844Z,1001.73
2022-07-31T08:30:19.279Z,1001.70
2022-07-31T08:31:23.633Z,1001.71
2022-07-31T08:32:27.999Z,1001.74
2022-07-31T08:33:32.379Z,1001.66
2022-07-31T08:34:41.699Z,1001.67
2022-07-31T08:35:41.189Z,1001.65
2022-07-31T08:36:45.561Z,1001.57
2022-07-31T08:37:59.209Z,1001.60
2022-07-31T08:38:54.358Z,1001.58
2022-07-31T08:39:58.736Z,1001.65
2022-07-31T08:41:03.158Z,1001.56
2022-07-31T08:42:07.538Z,1001.62
2022-07-31T08:43:31.065Z,1001.59
2022-07-31T08:44:16.331Z,1001.61
2022-07-31T08:45:20.710Z,1001.61
2022-07-31T08:46:25.086Z,1001.61
2022-07-31T08:47:29.509Z,1001.59
2022-07-31T08:48:33.888Z,1001.68
2022-07-31T08:49:38.331Z,1001.64
2022-07-31T08:50:42.661Z,1001.67
2022-07-31T08:51:51.284Z,1001.63
2022-07-31T08:52:51.431Z,1001.59
2022-07-31T08:53:55.800Z,1001.60
2022-07-31T08:55:00.211Z,1001.58
2022-07-31T08:56:04.610Z,1001.58
2022-07-31T08:57:12.822Z,1001.55
2022-07-31T08:58:13.375Z,1001.58
2022-07-31T08:59:17.773Z,1001.54
2022-07-31T09:00:22.150Z,1001.60
2022-07-31T09:01:26.582Z,1001.62
2022-07-31T09:02:30.906Z,1001.52
2022-07-31T09:03:35.292Z,1001.62
2022-07-31T09:04:39.683Z,1001.53
2022-07-31T09:05:44.072Z,1001.52
2022-07-31T09:06:48.462Z,1001.49
2022-07-31T09:07:52.857Z,1001.53
2022-07-31T09:08:57.234Z,1001.58
2022-07-31T09:10:01.643Z,1001.66
2022-07-31T09:11:06.420Z,1001.57
2022-07-31T09:12:10.433Z,1001.61
2022-07-31T09:13:14.822Z,1001.57
2022-07-31T09:14:19.194Z,1001.57
2022-07-31T09:15:23.596Z,1001.58
2022-07-31T09:16:30.930Z,1001.67
2022-07-31T09:17:32.365Z,1001.60
2022-07-31T09:18:36.744Z,1001.56
2022-07-31T09:19:51.824Z,1001.62
2022-07-31T09:20:45.528Z,1001.65
2022-07-31T09:21:49.894Z,1001.61
2022-07-31T09:22:54.274Z,1001.62
2022-07-31T09:23:58.645Z,1001.61
2022-07-31T09:25:03.056Z,1001.61
2022-07-31T09:26:07.436Z,1001.65
2022-07-31T09:27:11.817Z,1001.65
2022-07-31T09:28:16.197Z,1001.57
2022-07-31T09:29:20.608Z,1001.59
2022-07-31T09:30:24.996Z,1001.63
2022-07-31T09:31:29.378Z,1001.59
2022-07-31T09:32:33.748Z,1001.60
2022-07-31T09:33:41.194Z,1001.57
2022-07-31T09:34:42.521Z,1001.60
2022-07-31T09:35:46.937Z,1001.54
2022-07-31T09:36:51.307Z,1001.62
2022-07-31T09:37:55.705Z,1001.61
2022-07-31T09:39:00.085Z,1001.64
2022-07-31T09:40:04.498Z,1001.68
2022-07-31T09:41:13.123Z,1001.58
2022-07-31T09:42:16.334Z,1001.58
2022-07-31T09:43:17.632Z,1001.61
2022-07-31T09:44:26.094Z,1001.53
2022-07-31T09:45:26.412Z,1001.53
2022-07-31T09:46:30.793Z,1001.55
2022-07-31T09:47:35.167Z,1001.55
2022-07-31T09:48:39.540Z,1001.53
2022-07-31T09:49:43.932Z,1001.60
2022-07-31T09:50:48.320Z,1001.57
2022-07-31T09:51:52.680Z,1001.57
2022-07-31T09:52:57.070Z,1001.53
2022-07-31T09:54:01.431Z,1001.46
2022-07-31T09:55:16.165Z,1001.47
2022-07-31T09:56:10.230Z,1001.43
2022-07-31T09:57:14.605Z,1001.54
2022-07-31T09:58:18.979Z,1001.51
2022-07-31T09:59:23.345Z,1001.48
2022-07-31T10:00:27.752Z,1001.47
2022-07-31T10:01:32.230Z,1001.59
2022-07-31T10:02:36.493Z,1001.52
2022-07-31T10:03:40.864Z,1001.57
2022-07-31T10:04:45.224Z,1001.59
2022-07-31T10:05:49.605Z,1001.59
2022-07-31T10:06:53.964Z,1001.61
2022-07-31T10:07:58.344Z,1001.54
2022-07-31T10:09:02.732Z,1001.55
2022-07-31T10:10:07.102Z,1001.53
2022-07-31T10:11:16.723Z,1001.60
2022-07-31T10:12:16.578Z,1001.62
2022-07-31T10:13:20.222Z,1001.59
2022-07-31T10:14:24.590Z,1001.57
2022-07-31T10:15:28.979Z,1001.56
2022-07-31T10:16:33.343Z,1001.57
2022-07-31T10:17:37.704Z,1001.53
2022-07-31T10:18:44.610Z,1001.62
2022-07-31T10:19:46.482Z,1001.55
2022-07-31T10:20:50.872Z,1001.62
2022-07-31T10:21:55.236Z,1001.62
2022-07-31T10:22:59.605Z,1001.59
2022-07-31T10:24:03.982Z,1001.65
2022-07-31T10:25:08.360Z,1001.64
2022-07-31T10:26:12.769Z,1001.64
2022-07-31T10:27:17.766Z,1001.72
2022-07-31T10:28:21.495Z,1001.70
2022-07-31T10:29:25.876Z,1001.63
2022-07-31T10:30:30.305Z,1001.69
2022-07-31T10:31:34.676Z,1001.61
2022-07-31T10:32:39.059Z,1001.59
2022-07-31T10:33:44.799Z,1001.59
2022-07-31T10:34:47.806Z,1001.57
2022-07-31T10:35:55.672Z,1001.63
2022-07-31T10:36:56.578Z,1001.68
2022-07-31T10:38:00.939Z,1001.65
2022-07-31T10:39:05.319Z,1001.59
2022-07-31T10:40:09.723Z,1001.53
2022-07-31T10:41:14.091Z,1001.59
2022-07-31T10:42:18.444Z,1001.62
2022-07-31T10:43:22.808Z,1001.56
2022-07-31T10:44:27.188Z,1001.62
2022-07-31T10:45:31.581Z,1001.60
2022-07-31T10:46:35.977Z,1001.67
2022-07-31T10:47:40.348Z,1001.60
2022-07-31T10:48:44.718Z,1001.57
2022-07-31T10:49:49.086Z,1001.58
2022-07-31T10:50:53.481Z,1001.61
2022-07-31T10:51:57.844Z,1001.57
2022-07-31T10:53:02.230Z,1001.59
2022-07-31T10:54:06.597Z,1001.61
2022-07-31T10:55:10.970Z,1001.59
2022-07-31T10:56:15.365Z,1001.66
2022-07-31T10:57:19.731Z,1001.55
2022-07-31T10:58:24.112Z,1001.54
2022-07-31T10:59:28.479Z,1001.56
2022-07-31T11:00:32.841Z,1001.53
2022-07-31T11:01:37.270Z,1001.53
2022-07-31T11:02:41.691Z,1001.59
2022-07-31T11:03:45.997Z,1001.46
2022-07-31T11:04:50.363Z,1001.47
2022-07-31T11:06:01.077Z,1001.51
2022-07-31T11:06:59.115Z,1001.49
2022-07-31T11:08:03.509Z,1001.50
2022-07-31T11:09:07.872Z,1001.42
2022-07-31T11:10:12.274Z,1001.38
2022-07-31T11:11:16.643Z,1001.45
2022-07-31T11:12:21.003Z,1001.40
2022-07-31T11:13:33.685Z,1001.41
2022-07-31T11:14:29.736Z,1001.40
2022-07-31T11:15:34.138Z,1001.44
2022-07-31T11:16:38.513Z,1001.39
2022-07-31T11:18:25.331Z,1001.45
2022-07-31T11:18:47.235Z,1001.46
2022-07-31T11:19:51.600Z,1001.53
2022-07-31T11:20:55.953Z,1001.44
2022-07-31T11:22:00.337Z,1001.44
2022-07-31T11:23:04.715Z,1001.38
2022-07-31T11:24:11.635Z,1001.35
2022-07-31T11:25:13.436Z,1001.32
2022-07-31T11:26:17.853Z,1001.41
2022-07-31T11:27:22.187Z,1001.41
2022-07-31T11:28:26.547Z,1001.45
2022-07-31T11:30:00.249Z,1001.40
2022-07-31T11:30:35.298Z,1001.34
2022-07-31T11:31:39.676Z,1001.31
2022-07-31T11:32:44.036Z,1001.33
2022-07-31T11:33:48.409Z,1001.28
2022-07-31T11:34:52.757Z,1001.39
2022-07-31T11:35:57.116Z,1001.43
2022-07-31T11:37:01.506Z,1001.29
2022-07-31T11:38:05.889Z,1001.30
2022-07-31T11:39:10.257Z,1001.25
2022-07-31T11:40:14.774Z,1001.33
2022-07-31T11:41:22.046Z,1001.37
2022-07-31T11:42:27.787Z,1001.42
2022-07-31T11:43:27.739Z,1001.28
2022-07-31T11:44:32.097Z,1001.24
2022-07-31T11:45:36.464Z,1001.19
2022-07-31T11:46:40.861Z,1001.27
2022-07-31T11:48:11.565Z,1001.17
2022-07-31T11:48:49.607Z,1001.32
2022-07-31T11:49:54.006Z,1001.23
2022-07-31T11:50:58.309Z,1001.25
2022-07-31T11:52:02.720Z,1001.26
2022-07-31T11:53:07.324Z,1001.28
2022-07-31T11:54:11.444Z,1001.22
2022-07-31T11:55:15.810Z,1001.14
2022-07-31T11:56:20.181Z,1001.09
2022-07-31T11:57:24.562Z,1001.09
2022-07-31T11:58:28.950Z,1001.18
2022-07-31T11:59:46.010Z,1001.16
2022-07-31T12:00:37.688Z,1001.13
2022-07-31T12:01:42.061Z,1001.24
2022-07-31T12:02:46.607Z,1001.20
2022-07-31T12:03:50.946Z,1001.19
2022-07-31T12:04:55.461Z,1001.12
2022-07-31T12:05:59.962Z,1001.11
2022-07-31T12:07:04.547Z,1001.08
2022-07-31T12:08:08.719Z,1001.04
2022-07-31T12:10:02.247Z,1001.07
2022-07-31T12:10:17.460Z,1001.05
2022-07-31T12:11:21.824Z,1001.14
2022-07-31T12:12:27.285Z,1001.04
2022-07-31T12:13:30.582Z,1001.07
2022-07-31T12:14:34.951Z,1001.11
2022-07-31T12:15:39.313Z,1001.12
2022-07-31T12:16:43.676Z,1001.12
2022-07-31T12:17:48.061Z,1001.06
2022-07-31T12:18:52.420Z,1001.02
2022-07-31T12:19:58.105Z,1000.99
2022-07-31T12:21:01.144Z,1001.02
2022-07-31T12:22:05.505Z,1000.91
2022-07-31T12:23:40.363Z,1000.97
2022-07-31T12:24:14.264Z,1001.01
2022-07-31T12:25:18.626Z,1000.96
2022-07-31T12:26:22.992Z,1001.07
2022-07-31T12:27:27.374Z,1000.99
2022-07-31T12:28:31.735Z,1000.96
2022-07-31T12:29:36.107Z,1000.94
2022-07-31T12:30:40.492Z,1000.91
2022-07-31T12:31:44.862Z,1000.96
2022-07-31T12:32:49.259Z,1000.93
2022-07-31T12:33:53.617Z,1000.95
2022-07-31T12:34:57.986Z,1001.11
2022-07-31T12:36:02.346Z,1000.95
2022-07-31T12:37:07.219Z,1000.99
2022-07-31T12:38:30.217Z,1001.09
2022-07-31T12:39:15.487Z,1001.01
2022-07-31T12:40:19.851Z,1000.89
2022-07-31T12:41:24.231Z,1000.85
2022-07-31T12:42:30.811Z,1000.96
2022-07-31T12:43:32.977Z,1001.03
2022-07-31T12:44:37.339Z,1001.04
2022-07-31T12:45:41.728Z,1000.90
2022-07-31T12:46:46.091Z,1000.91
2022-07-31T12:47:52.307Z,1000.96
2022-07-31T12:48:54.952Z,1000.98
2022-07-31T12:49:59.228Z,1000.97
2022-07-31T12:51:03.585Z,1000.88
2022-07-31T12:52:07.968Z,1000.94
2022-07-31T12:53:12.360Z,1000.94
2022-07-31T12:54:16.743Z,1000.96
2022-07-31T12:55:21.099Z,1001.03
2022-07-31T12:56:25.480Z,1000.97
2022-07-31T12:57:29.869Z,1000.92
2022-07-31T12:58:34.229Z,1000.88
2022-07-31T12:59:38.601Z,1000.83
2022-07-31T13:00:42.960Z,1000.87
2022-07-31T13:01:47.460Z,1000.89
2022-07-31T13:02:52.527Z,1000.86
2022-07-31T13:03:56.872Z,1000.86
2022-07-31T13:05:01.479Z,1000.88
2022-07-31T13:06:05.638Z,1000.87
2022-07-31T13:07:10.001Z,1000.85
2022-07-31T13:08:14.407Z,1001.00
2022-07-31T13:09:18.754Z,1000.78
2022-07-31T13:10:24.845Z,1000.89
2022-07-31T13:11:27.494Z,1000.83
2022-07-31T13:12:31.873Z,1000.87
2022-07-31T13:13:36.263Z,1000.88
2022-07-31T13:14:40.655Z,1000.90